createdAt,value
2019-03-21T00:00:50.125Z,15.58
2019-03-21T00:03:23.183Z,15.61
2019-03-21T00:05:54.807Z,15.66
2019-03-21T00:08:25.627Z,15.71
2019-03-21T00:11:38.600Z,15.75
2019-03-21T00:14:19.515Z,15.77
2019-03-21T00:16:52.748Z,15.69
2019-03-21T00:19:23.769Z,15.67
2019-03-21T00:21:55.063Z,15.33
2019-03-21T00:24:26.938Z,15.39
2019-03-21T00:27:00.759Z,15.21
2019-03-21T00:29:33.967Z,15.18
2019-03-21T00:32:06.487Z,14.95
2019-03-21T00:34:37.527Z,15.25
2019-03-21T00:37:10.680Z,15.26
2019-03-21T00:39:43.129Z,14.97
2019-03-21T00:42:15.270Z,15.03
2019-03-21T00:44:49.414Z,14.55
2019-03-21T00:47:23.390Z,14.97
2019-03-21T00:49:54.123Z,14.78
2019-03-21T00:52:25.619Z,14.89
2019-03-21T00:54:57.566Z,15.07
2019-03-21T00:57:29.916Z,15.13
2019-03-21T01:00:02.377Z,14.96
2019-03-21T01:02:36.553Z,14.81
2019-03-21T01:05:09.415Z,14.70
2019-03-21T01:07:40.663Z,13.97
2019-03-21T01:10:14.680Z,14.24
2019-03-21T01:12:45.496Z,14.69
2019-03-21T01:15:16.229Z,14.38
2019-03-21T01:17:48.585Z,14.03
2019-03-21T01:20:20.121Z,14.27
2019-03-21T01:22:50.956Z,14.40
2019-03-21T01:25:25.081Z,14.18
2019-03-21T01:27:56.523Z,14.06
2019-03-21T01:30:28.445Z,14.23
2019-03-21T01:33:00.150Z,14.34
2019-03-21T01:35:31.221Z,14.14
2019-03-21T01:38:02.812Z,14.27
2019-03-21T01:40:37.049Z,14.23
2019-03-21T01:43:08.580Z,14.18
2019-03-21T01:45:40.182Z,14.32
2019-03-21T01:48:12.958Z,14.38
2019-03-21T01:50:44.655Z,14.46
2019-03-21T01:53:16.596Z,14.49
2019-03-21T01:55:49.194Z,14.59
2019-03-21T01:58:22.100Z,14.61
2019-03-21T02:00:56.469Z,14.52
2019-03-21T02:03:29.295Z,14.49
2019-03-21T02:06:01.535Z,14.41
2019-03-21T02:08:32.560Z,14.27
2019-03-21T02:11:04.752Z,14.05
2019-03-21T02:13:35.950Z,13.96
2019-03-21T02:16:07.616Z,13.67
2019-03-21T02:18:40.406Z,13.73
2019-03-21T02:21:11.532Z,13.82
2019-03-21T02:23:44.381Z,13.72
2019-03-21T02:26:15.912Z,13.74
2019-03-21T02:28:48.931Z,13.55
2019-03-21T02:31:20.028Z,13.51
2019-03-21T02:33:52.544Z,13.63
2019-03-21T02:36:24.365Z,13.49
2019-03-21T02:38:58.824Z,13.23
2019-03-21T02:41:31.112Z,13.07
2019-03-21T02:44:03.760Z,12.60
2019-03-21T02:46:34.903Z,12.61
2019-03-21T02:49:07.234Z,12.88
2019-03-21T02:51:39.191Z,12.98
2019-03-21T02:54:11.555Z,12.38
2019-03-21T02:56:43.750Z,12.63
2019-03-21T02:59:15.777Z,13.07
2019-03-21T03:01:49.254Z,13.16
2019-03-21T03:04:24.758Z,13.01
2019-03-21T03:06:56.917Z,13.02
2019-03-21T03:09:27.800Z,12.82
2019-03-21T03:11:58.877Z,12.80
2019-03-21T03:14:30.806Z,12.88
2019-03-21T03:17:01.780Z,12.59
2019-03-21T03:19:34.734Z,12.76
2019-03-21T03:22:05.950Z,12.81
2019-03-21T03:24:41.409Z,12.79
2019-03-21T03:27:17.305Z,12.82
2019-03-21T03:29:49.844Z,12.94
2019-03-21T03:32:21.840Z,12.93
2019-03-21T03:34:54.931Z,12.99
2019-03-21T03:37:26.087Z,13.05
2019-03-21T03:39:56.922Z,12.87
2019-03-21T03:42:28.379Z,13.07
2019-03-21T03:45:01.378Z,13.17
2019-03-21T03:47:33.273Z,13.34
2019-03-21T03:50:07.241Z,13.42
2019-03-21T03:52:38.389Z,13.54
2019-03-21T03:55:11.079Z,13.54
2019-03-21T03:57:43.072Z,13.63
2019-03-21T04:00:17.326Z,13.56
2019-03-21T04:02:52.809Z,13.39
2019-03-21T04:05:25.435Z,13.31
2019-03-21T04:07:59.510Z,13.48
2019-03-21T04:10:36.431Z,13.27
2019-03-21T04:13:09.439Z,13.06
2019-03-21T04:15:52.319Z,12.95
2019-03-21T04:18:15.889Z,12.80
2019-03-21T04:20:51.482Z,12.84
2019-03-21T04:23:25.188Z,12.68
2019-03-21T04:26:05.958Z,12.78
2019-03-21T04:28:42.024Z,12.23
2019-03-21T04:31:14.977Z,11.78
2019-03-21T04:33:47.991Z,11.76
2019-03-21T04:36:20.377Z,12.26
2019-03-21T04:38:53.928Z,12.23
2019-03-21T04:41:26.188Z,12.31
2019-03-21T04:43:58.974Z,12.14
2019-03-21T04:46:30.834Z,11.84
2019-03-21T04:49:02.084Z,11.77
2019-03-21T04:51:33.680Z,11.86
2019-03-21T04:54:06.475Z,12.02
2019-03-21T04:56:37.157Z,11.79
2019-03-21T04:59:08.371Z,11.93
2019-03-21T05:01:39.475Z,12.02
2019-03-21T05:04:11.357Z,11.89
2019-03-21T05:06:45.476Z,12.16
2019-03-21T05:09:20.305Z,12.41
2019-03-21T05:11:52.658Z,12.45
2019-03-21T05:14:23.729Z,12.63
2019-03-21T05:16:54.965Z,12.42
2019-03-21T05:19:26.357Z,12.41
2019-03-21T05:21:59.262Z,12.21
2019-03-21T05:24:30.456Z,11.89
2019-03-21T05:27:02.653Z,11.53
2019-03-21T05:29:33.602Z,11.29
2019-03-21T05:32:04.912Z,11.29
2019-03-21T05:34:35.644Z,10.96
2019-03-21T05:37:11.977Z,10.87
2019-03-21T05:39:43.376Z,10.91
2019-03-21T05:42:19.344Z,10.77
2019-03-21T05:44:51.281Z,11.37
2019-03-21T05:47:22.496Z,10.92
2019-03-21T05:49:54.536Z,11.10
2019-03-21T05:52:27.553Z,10.75
2019-03-21T05:54:59.042Z,10.61
2019-03-21T05:57:31.476Z,10.39
2019-03-21T06:00:03.332Z,10.37
2019-03-21T06:02:34.568Z,10.69
2019-03-21T06:05:09.398Z,10.50
2019-03-21T06:08:00.833Z,10.86
2019-03-21T06:10:31.548Z,10.88
2019-03-21T06:13:02.417Z,10.78
2019-03-21T06:15:36.813Z,11.20
2019-03-21T06:18:57.168Z,11.45
2019-03-21T06:22:01.951Z,11.43
2019-03-21T06:25:01.418Z,11.54
2019-03-21T06:27:33.929Z,11.65
2019-03-21T06:30:07.086Z,11.50
2019-03-21T06:32:38.166Z,11.64
2019-03-21T06:35:35.646Z,12.22
2019-03-21T06:38:27.253Z,12.23
2019-03-21T06:41:00.090Z,12.65
2019-03-21T06:43:31.660Z,12.30
2019-03-21T06:46:03.197Z,12.40
2019-03-21T06:48:35.180Z,12.75
2019-03-21T06:51:06.479Z,11.81
2019-03-21T06:53:38.321Z,11.88
2019-03-21T06:56:10.863Z,12.09
2019-03-21T06:58:43.487Z,12.25
2019-03-21T07:01:15.371Z,12.00
2019-03-21T07:03:47.225Z,12.03
2019-03-21T07:06:19.896Z,12.35
2019-03-21T07:08:53.412Z,12.43
2019-03-21T07:11:27.467Z,12.64
2019-03-21T07:14:00.454Z,12.40
2019-03-21T07:16:36.826Z,11.50
2019-03-21T07:19:12.878Z,11.83
2019-03-21T07:21:46.557Z,12.26
2019-03-21T07:24:20.974Z,12.65
2019-03-21T07:26:54.202Z,12.79
2019-03-21T07:29:24.940Z,12.94
2019-03-21T07:31:56.154Z,12.53
2019-03-21T07:34:28.989Z,12.78
2019-03-21T07:37:00.237Z,13.05
2019-03-21T07:39:31.556Z,13.06
2019-03-21T07:42:03.747Z,12.80
2019-03-21T07:44:34.909Z,13.38
2019-03-21T07:47:12.655Z,13.37
2019-03-21T07:49:38.461Z,13.58
2019-03-21T07:52:09.554Z,13.83
2019-03-21T07:54:41.527Z,13.86
2019-03-21T07:57:14.110Z,13.95
2019-03-21T08:02:14.884Z,13.34
2019-03-21T08:04:48.692Z,12.93
2019-03-21T08:07:21.475Z,13.28
2019-03-21T08:09:52.924Z,13.75
2019-03-21T08:12:25.742Z,13.63
2019-03-21T08:14:57.939Z,13.26
2019-03-21T08:17:31.075Z,13.72
2019-03-21T08:20:04.361Z,13.99
2019-03-21T08:22:38.829Z,14.01
2019-03-21T08:25:11.158Z,14.18
2019-03-21T08:27:45.963Z,13.93
2019-03-21T08:30:39.960Z,13.51
2019-03-21T08:33:12.824Z,13.72
2019-03-21T08:35:44.032Z,13.12
2019-03-21T08:38:17.674Z,14.11
2019-03-21T08:40:51.501Z,14.45
2019-03-21T08:43:24.018Z,14.69
2019-03-21T08:45:57.047Z,14.26
2019-03-21T08:48:30.343Z,14.38
2019-03-21T08:51:08.192Z,14.62
2019-03-21T08:53:37.433Z,14.51
2019-03-21T08:56:09.402Z,14.41
2019-03-21T08:58:42.909Z,14.61
2019-03-21T09:01:15.284Z,14.81
2019-03-21T09:03:47.832Z,14.51
2019-03-21T09:06:18.832Z,14.75
2019-03-21T09:08:52.636Z,15.06
2019-03-21T09:11:28.350Z,15.18
2019-03-21T09:13:59.575Z,14.98
2019-03-21T09:16:32.511Z,15.24
2019-03-21T09:19:03.598Z,15.16
2019-03-21T09:21:35.105Z,15.70
2019-03-21T09:24:07.335Z,15.78
2019-03-21T09:26:38.958Z,15.36
2019-03-21T09:29:11.730Z,15.88
2019-03-21T09:31:42.901Z,16.19
2019-03-21T09:34:13.787Z,16.50
2019-03-21T09:36:44.597Z,16.71
2019-03-21T09:39:17.744Z,16.77
2019-03-21T09:41:49.599Z,16.54
2019-03-21T09:44:25.336Z,16.66
2019-03-21T09:46:56.789Z,16.99
2019-03-21T09:49:29.539Z,17.24
2019-03-21T09:52:01.540Z,17.45
2019-03-21T09:54:34.251Z,17.39
2019-03-21T09:57:06.169Z,17.56
2019-03-21T09:59:39.139Z,17.90
2019-03-21T10:02:10.760Z,18.24
2019-03-21T10:04:42.016Z,18.37
2019-03-21T10:07:12.895Z,18.20
2019-03-21T10:09:45.837Z,18.26
2019-03-21T10:12:17.558Z,18.38
2019-03-21T10:14:52.094Z,18.60
2019-03-21T10:17:24.159Z,18.33
2019-03-21T10:19:56.031Z,18.60
2019-03-21T10:22:27.634Z,18.69
2019-03-21T10:24:59.281Z,19.07
2019-03-21T10:27:31.391Z,19.22
2019-03-21T10:30:02.685Z,19.14
2019-03-21T10:32:33.481Z,19.63
2019-03-21T10:35:05.876Z,19.51
2019-03-21T10:37:37.134Z,19.34
2019-03-21T10:40:08.459Z,19.63
2019-03-21T10:42:40.029Z,19.82
2019-03-21T10:45:12.960Z,20.11
2019-03-21T10:47:43.665Z,20.49
2019-03-21T10:50:18.130Z,20.28
2019-03-21T10:52:48.931Z,20.44
2019-03-21T10:55:20.746Z,20.71
2019-03-21T10:57:52.643Z,20.67
2019-03-21T11:00:24.713Z,20.28
2019-03-21T11:02:55.891Z,20.76
2019-03-21T11:05:28.614Z,21.43
2019-03-21T11:08:00.937Z,20.55
2019-03-21T11:10:33.367Z,20.20
2019-03-21T11:13:04.731Z,20.77
2019-03-21T11:15:38.057Z,21.49
2019-03-21T11:18:08.943Z,21.31
2019-03-21T11:20:43.399Z,21.74
2019-03-21T11:23:16.229Z,21.71
2019-03-21T11:25:49.354Z,21.65
2019-03-21T11:28:22.131Z,22.67
2019-03-21T11:30:55.298Z,22.25
2019-03-21T11:33:26.866Z,22.24
2019-03-21T11:35:58.098Z,23.16
2019-03-21T11:38:29.300Z,22.74
2019-03-21T11:41:00.711Z,22.84
2019-03-21T11:43:33.842Z,23.73
2019-03-21T11:46:07.013Z,23.26
2019-03-21T11:48:38.511Z,23.51
2019-03-21T11:51:10.246Z,22.96
2019-03-21T11:53:41.236Z,22.72
2019-03-21T11:56:13.373Z,22.21
2019-03-21T11:58:47.592Z,22.48
2019-03-21T12:01:21.164Z,22.92
2019-03-21T12:03:52.660Z,23.72
2019-03-21T12:06:24.872Z,23.89
2019-03-21T12:08:57.793Z,23.90
2019-03-21T12:11:30.138Z,23.72
2019-03-21T12:14:01.192Z,23.83
2019-03-21T12:16:33.214Z,23.66
2019-03-21T12:19:08.437Z,24.25
2019-03-21T12:21:40.100Z,24.47
2019-03-21T12:24:12.917Z,23.62
2019-03-21T12:26:46.007Z,23.05
2019-03-21T12:29:17.118Z,23.72
2019-03-21T12:31:49.977Z,24.31
2019-03-21T12:34:21.299Z,24.74
2019-03-21T12:36:52.057Z,25.72
2019-03-21T12:39:24.294Z,26.01
2019-03-21T12:42:06.376Z,25.95
2019-03-21T12:44:37.973Z,27.40
2019-03-21T12:47:10.471Z,28.53
2019-03-21T12:49:41.186Z,30.06
2019-03-21T12:52:12.552Z,30.01
2019-03-21T12:54:44.685Z,30.55
2019-03-21T12:57:16.928Z,30.50
2019-03-21T12:59:47.629Z,31.57
2019-03-21T13:02:31.962Z,34.18
2019-03-21T13:04:55.822Z,35.17
2019-03-21T13:07:26.388Z,36.15
2019-03-21T13:09:59.191Z,37.28
2019-03-21T13:12:33.420Z,38.13
2019-03-21T13:15:04.730Z,37.54
2019-03-21T13:17:36.149Z,36.92
2019-03-21T13:20:07.910Z,37.85
2019-03-21T13:22:40.653Z,37.93
2019-03-21T13:25:12.828Z,38.35
2019-03-21T13:27:44.002Z,40.11
2019-03-21T13:30:14.924Z,40.65
2019-03-21T13:32:47.269Z,39.49
2019-03-21T13:35:19.048Z,39.41
2019-03-21T13:37:54.003Z,39.27
2019-03-21T13:40:26.617Z,40.19
2019-03-21T13:42:58.252Z,39.93
2019-03-21T13:45:30.283Z,40.17
2019-03-21T13:48:02.467Z,39.85
2019-03-21T13:50:33.572Z,39.48
2019-03-21T13:53:17.619Z,39.55
2019-03-21T13:55:40.101Z,39.44
2019-03-21T13:58:11.572Z,38.55
2019-03-21T14:00:43.146Z,39.61
2019-03-21T14:03:25.005Z,39.90
2019-03-21T14:05:52.074Z,38.31
2019-03-21T14:08:23.105Z,39.01
2019-03-21T14:10:55.183Z,38.57
2019-03-21T14:13:28.244Z,38.78
2019-03-21T14:16:00.244Z,39.43
2019-03-21T14:18:35.694Z,39.68
2019-03-21T14:21:07.529Z,40.43
2019-03-21T14:23:43.540Z,40.41
2019-03-21T14:26:12.662Z,40.60
2019-03-21T14:28:46.912Z,40.70
2019-03-21T14:31:17.728Z,41.24
2019-03-21T14:33:50.630Z,40.96
2019-03-21T14:36:23.961Z,40.66
2019-03-21T14:39:23.042Z,39.55
2019-03-21T14:41:53.778Z,39.97
2019-03-21T14:44:24.531Z,39.69
2019-03-21T14:46:58.002Z,39.46
2019-03-21T14:49:29.801Z,39.42
2019-03-21T14:52:00.606Z,40.40
2019-03-21T14:54:32.369Z,39.83
2019-03-21T14:57:03.563Z,40.59
2019-03-21T14:59:34.717Z,39.90
2019-03-21T15:02:08.268Z,40.08
2019-03-21T15:04:42.189Z,40.17
2019-03-21T15:07:13.787Z,39.93
2019-03-21T15:09:45.022Z,38.00
2019-03-21T15:12:16.346Z,37.76
2019-03-21T15:14:49.044Z,36.67
2019-03-21T15:17:21.147Z,35.74
2019-03-21T15:19:54.819Z,35.85
2019-03-21T15:22:26.408Z,35.28
2019-03-21T15:24:57.568Z,34.41
2019-03-21T15:27:31.729Z,33.64
2019-03-21T15:30:03.651Z,32.47
2019-03-21T15:32:35.782Z,31.66
2019-03-21T15:35:10.950Z,30.88
2019-03-21T15:37:44.787Z,30.09
2019-03-21T15:40:17.264Z,29.29
2019-03-21T15:42:49.216Z,28.62
2019-03-21T15:45:23.947Z,28.30
2019-03-21T15:47:58.031Z,28.05
2019-03-21T15:50:38.662Z,27.96
2019-03-21T15:53:09.785Z,27.80
2019-03-21T15:55:40.910Z,27.49
2019-03-21T15:58:12.098Z,27.18
2019-03-21T16:00:47.881Z,26.98
2019-03-21T16:03:20.107Z,26.71
2019-03-21T16:05:54.555Z,26.47
2019-03-21T16:08:27.412Z,26.13
2019-03-21T16:10:58.611Z,25.93
2019-03-21T16:13:30.174Z,25.81
2019-03-21T16:16:02.646Z,25.63
2019-03-21T16:18:37.984Z,25.31
2019-03-21T16:21:17.890Z,25.29
2019-03-21T16:23:49.803Z,25.16
2019-03-21T16:26:21.286Z,25.04
2019-03-21T16:28:53.275Z,24.90
2019-03-21T16:31:24.912Z,24.85
2019-03-21T16:33:56.190Z,24.77
2019-03-21T16:36:27.959Z,24.70
2019-03-21T16:38:59.442Z,24.62
2019-03-21T16:41:30.694Z,24.43
2019-03-21T16:44:01.396Z,24.13
2019-03-21T16:46:32.919Z,24.13
2019-03-21T16:49:05.444Z,24.11
2019-03-21T16:51:38.578Z,23.78
2019-03-21T16:54:17.007Z,23.78
2019-03-21T16:56:43.256Z,23.75
2019-03-21T16:59:16.154Z,23.57
2019-03-21T17:01:48.468Z,23.65
2019-03-21T17:04:19.960Z,23.59
2019-03-21T17:06:51.771Z,23.51
2019-03-21T17:09:23.411Z,23.54
2019-03-21T17:11:54.523Z,23.55
2019-03-21T17:14:28.372Z,23.50
2019-03-21T17:17:00.543Z,23.19
2019-03-21T17:19:31.688Z,23.19
2019-03-21T17:22:03.675Z,23.22
2019-03-21T17:24:34.768Z,23.05
2019-03-21T17:27:06.385Z,22.75
2019-03-21T17:29:37.598Z,22.80
2019-03-21T17:32:09.463Z,22.84
2019-03-21T17:34:40.851Z,22.86
2019-03-21T17:37:15.783Z,22.78
2019-03-21T17:39:49.238Z,22.81
2019-03-21T17:42:21.872Z,22.58
2019-03-21T17:44:56.945Z,22.60
2019-03-21T17:47:29.705Z,22.52
2019-03-21T17:50:01.697Z,22.53
2019-03-21T17:52:34.645Z,22.44
2019-03-21T17:55:07.417Z,22.52
2019-03-21T17:57:44.899Z,22.51
2019-03-21T18:00:22.814Z,22.52
2019-03-21T18:02:55.569Z,22.44
2019-03-21T18:05:27.013Z,22.44
2019-03-21T18:07:59.158Z,22.39
2019-03-21T18:10:32.946Z,22.37
2019-03-21T18:13:04.805Z,22.33
2019-03-21T18:15:36.577Z,22.27
2019-03-21T18:18:10.837Z,22.17
2019-03-21T18:20:42.133Z,22.14
2019-03-21T18:23:14.265Z,22.08
2019-03-21T18:25:46.525Z,22.04
2019-03-21T18:28:17.715Z,21.93
2019-03-21T18:30:48.875Z,21.89
2019-03-21T18:33:19.639Z,21.84
2019-03-21T18:35:52.451Z,21.81
2019-03-21T18:38:24.592Z,21.76
2019-03-21T18:40:56.437Z,21.67
2019-03-21T18:43:27.305Z,21.64
2019-03-21T18:45:58.024Z,21.59
2019-03-21T18:48:29.096Z,21.56
2019-03-21T18:51:02.019Z,21.52
2019-03-21T18:53:37.879Z,21.48
2019-03-21T18:56:11.417Z,21.43
2019-03-21T18:58:42.327Z,21.39
2019-03-21T19:01:15.505Z,21.36
2019-03-21T19:03:46.738Z,21.34
2019-03-21T19:06:19.611Z,21.29
2019-03-21T19:08:51.524Z,21.26
2019-03-21T19:11:23.492Z,21.23
2019-03-21T19:13:54.938Z,21.19
2019-03-21T19:16:26.020Z,21.17
2019-03-21T19:18:58.489Z,21.12
2019-03-21T19:21:29.729Z,21.09
2019-03-21T19:24:05.839Z,21.07
2019-03-21T19:26:37.248Z,21.04
2019-03-21T19:29:10.378Z,20.99
2019-03-21T19:31:42.259Z,20.96
2019-03-21T19:34:13.957Z,20.93
2019-03-21T19:36:44.961Z,20.91
2019-03-21T19:39:21.339Z,20.88
2019-03-21T19:41:53.819Z,20.84
2019-03-21T19:44:25.540Z,20.78
2019-03-21T19:47:01.274Z,20.75
2019-03-21T19:49:31.998Z,20.65
2019-03-21T19:52:05.439Z,20.68
2019-03-21T19:54:37.308Z,20.67
2019-03-21T19:57:09.889Z,20.66
2019-03-21T19:59:42.483Z,20.63
2019-03-21T20:02:14.809Z,20.63
2019-03-21T20:04:48.326Z,20.64
2019-03-21T20:07:19.756Z,20.60
2019-03-21T20:09:51.390Z,20.59
2019-03-21T20:12:23.005Z,20.57
2019-03-21T20:14:57.025Z,20.56
2019-03-21T20:17:27.808Z,20.55
2019-03-21T20:20:00.019Z,20.46
2019-03-21T20:22:33.746Z,20.43
2019-03-21T20:25:07.835Z,20.38
2019-03-21T20:27:40.469Z,20.36
2019-03-21T20:30:14.041Z,20.34
2019-03-21T20:32:47.166Z,20.33
2019-03-21T20:35:19.807Z,20.26
2019-03-21T20:37:50.685Z,20.23
2019-03-21T20:40:23.772Z,20.21
2019-03-21T20:42:58.140Z,20.19
2019-03-21T20:45:30.703Z,20.15
2019-03-21T20:48:02.097Z,20.13
2019-03-21T20:50:33.308Z,20.12
2019-03-21T20:53:05.478Z,20.11
2019-03-21T20:55:39.437Z,20.08
2019-03-21T20:58:12.397Z,20.07
2019-03-21T21:00:44.587Z,20.05
2019-03-21T21:03:17.725Z,20.02
2019-03-21T21:05:49.301Z,19.97
2019-03-21T21:08:20.950Z,19.95
2019-03-21T21:10:54.947Z,19.93
2019-03-21T21:13:28.930Z,19.91
2019-03-21T21:16:03.020Z,19.84
2019-03-21T21:18:36.354Z,19.82
2019-03-21T21:21:08.964Z,19.78
2019-03-21T21:23:39.929Z,19.69
2019-03-21T21:26:13.322Z,19.65
2019-03-21T21:28:44.076Z,19.63
2019-03-21T21:31:14.927Z,19.60
2019-03-21T21:33:46.079Z,19.57
2019-03-21T21:36:22.100Z,19.55
2019-03-21T21:38:53.543Z,19.54
2019-03-21T21:41:25.819Z,19.48
2019-03-21T21:44:04.352Z,19.49
2019-03-21T21:46:36.562Z,19.45
2019-03-21T21:49:08.997Z,19.44
2019-03-21T21:51:41.637Z,19.40
2019-03-21T21:54:13.903Z,19.38
2019-03-21T21:56:46.951Z,19.35
2019-03-21T21:59:18.887Z,19.30
2019-03-21T22:01:52.773Z,19.28
2019-03-21T22:04:26.396Z,19.23
2019-03-21T22:06:59.342Z,19.20
2019-03-21T22:09:32.072Z,19.12
2019-03-21T22:12:06.858Z,19.14
2019-03-21T22:14:38.399Z,18.97
2019-03-21T22:17:09.755Z,19.06
2019-03-21T22:19:43.826Z,19.05
2019-03-21T22:22:19.135Z,18.98
2019-03-21T22:24:50.671Z,18.99
2019-03-21T22:27:25.228Z,18.97
2019-03-21T22:29:57.918Z,18.94
2019-03-21T22:32:29.469Z,18.93
2019-03-21T22:35:00.616Z,18.78
2019-03-21T22:37:31.381Z,18.78
2019-03-21T22:40:03.004Z,18.81
2019-03-21T22:42:34.617Z,18.80
2019-03-21T22:45:08.126Z,18.77
2019-03-21T22:47:40.869Z,18.75
2019-03-21T22:50:15.089Z,18.71
2019-03-21T22:52:47.024Z,18.69
2019-03-21T22:55:18.261Z,18.63
2019-03-21T22:57:50.303Z,18.64
2019-03-21T23:00:29.431Z,18.62
2019-03-21T23:03:03.445Z,18.58
2019-03-21T23:05:34.232Z,18.53
2019-03-21T23:08:07.003Z,18.51
2019-03-21T23:10:39.075Z,18.45
2019-03-21T23:13:11.519Z,18.21
2019-03-21T23:15:42.235Z,18.16
2019-03-21T23:18:13.906Z,18.06
2019-03-21T23:20:44.689Z,18.18
2019-03-21T23:23:17.337Z,18.18
2019-03-21T23:25:48.539Z,18.10
2019-03-21T23:28:20.225Z,18.15
2019-03-21T23:30:51.065Z,18.17
2019-03-21T23:33:23.249Z,18.14
2019-03-21T23:35:54.424Z,18.09
2019-03-21T23:38:29.311Z,17.91
2019-03-21T23:41:03.391Z,17.98
2019-03-21T23:43:36.859Z,17.92
2019-03-21T23:46:08.335Z,17.58
2019-03-21T23:48:40.487Z,17.49
2019-03-21T23:51:12.344Z,17.48
2019-03-21T23:53:44.969Z,17.58
2019-03-21T23:56:17.671Z,17.59
2019-03-21T23:58:51.289Z,17.61
